createdAt,value
2018-05-17T00:03:00.616Z,3.15
2018-05-17T00:06:53.719Z,3.73
2018-05-17T00:10:46.984Z,4.13
2018-05-17T00:14:40.122Z,4.40
2018-05-17T00:18:33.307Z,4.50
2018-05-17T00:22:26.417Z,4.97
2018-05-17T00:26:20.312Z,3.77
2018-05-17T00:30:13.767Z,3.17
2018-05-17T00:34:07.725Z,3.87
2018-05-17T00:38:00.836Z,3.45
2018-05-17T00:41:54.042Z,2.95
2018-05-17T00:45:47.304Z,3.50
2018-05-17T00:49:40.461Z,3.83
2018-05-17T00:53:34.780Z,3.33
2018-05-17T00:57:27.941Z,4.53
2018-05-17T01:01:21.205Z,3.40
2018-05-17T01:05:14.343Z,4.13
2018-05-17T01:09:07.611Z,4.37
2018-05-17T01:13:00.810Z,3.85
2018-05-17T01:16:53.955Z,4.20
2018-05-17T01:20:48.078Z,4.40
2018-05-17T01:24:41.312Z,3.97
2018-05-17T01:28:34.537Z,4.73
2018-05-17T01:32:27.714Z,5.83
2018-05-17T01:36:20.984Z,4.37
2018-05-17T01:40:14.085Z,3.83
2018-05-17T01:44:07.274Z,4.80
2018-05-17T01:48:00.539Z,4.30
2018-05-17T01:51:54.627Z,4.37
2018-05-17T01:55:47.918Z,3.87
2018-05-17T01:59:41.082Z,4.43
2018-05-17T02:03:35.116Z,4.37
2018-05-17T02:07:28.327Z,4.60
2018-05-17T02:11:21.471Z,4.73
2018-05-17T02:15:14.676Z,4.00
2018-05-17T02:19:07.826Z,4.97
2018-05-17T02:23:01.739Z,4.63
2018-05-17T02:26:55.632Z,4.50
2018-05-17T02:30:48.858Z,5.43
2018-05-17T02:34:42.069Z,4.20
2018-05-17T02:38:35.243Z,4.53
2018-05-17T02:42:28.389Z,3.93
2018-05-17T02:46:21.608Z,4.67
2018-05-17T02:50:15.604Z,3.60
2018-05-17T02:54:09.487Z,3.90
2018-05-17T02:58:02.614Z,4.43
2018-05-17T03:01:55.844Z,3.67
2018-05-17T03:05:49.872Z,3.77
2018-05-17T03:09:43.078Z,3.37
2018-05-17T03:13:36.192Z,3.83
2018-05-17T03:17:29.335Z,3.93
2018-05-17T03:21:22.694Z,4.37
2018-05-17T03:25:16.088Z,4.30
2018-05-17T03:29:09.239Z,3.92
2018-05-17T03:33:02.422Z,4.67
2018-05-17T03:36:55.620Z,4.03
2018-05-17T03:40:49.535Z,3.63
2018-05-17T03:44:42.792Z,4.00
2018-05-17T03:48:36.037Z,4.40
2018-05-17T03:52:29.222Z,4.53
2018-05-17T03:56:22.454Z,3.90
2018-05-17T04:00:16.339Z,5.23
2018-05-17T04:04:21.488Z,3.90
2018-05-17T04:08:14.651Z,4.20
2018-05-17T04:12:08.597Z,3.73
2018-05-17T04:16:01.760Z,5.37
2018-05-17T04:19:55.428Z,3.43
2018-05-17T04:23:48.651Z,4.73
2018-05-17T04:27:42.612Z,3.93
2018-05-17T04:31:35.813Z,4.00
2018-05-17T04:35:28.982Z,4.72
2018-05-17T04:39:22.123Z,4.37
2018-05-17T04:43:15.316Z,4.40
2018-05-17T04:47:08.643Z,4.82
2018-05-17T04:51:02.940Z,4.20
2018-05-17T04:54:56.997Z,4.10
2018-05-17T04:58:50.232Z,3.83
2018-05-17T05:02:43.403Z,4.13
2018-05-17T05:06:36.516Z,3.60
2018-05-17T05:10:29.667Z,3.87
2018-05-17T05:14:23.361Z,3.87
2018-05-17T05:18:16.850Z,4.20
2018-05-17T05:22:10.908Z,4.33
2018-05-17T05:26:04.046Z,4.00
2018-05-17T05:29:57.337Z,3.57
2018-05-17T05:33:53.011Z,3.40
2018-05-17T05:37:46.191Z,3.67
2018-05-17T05:41:39.773Z,3.87
2018-05-17T05:45:32.944Z,4.37
2018-05-17T05:49:26.909Z,4.63
2018-05-17T05:53:20.147Z,4.10
2018-05-17T05:57:13.312Z,4.10
2018-05-17T06:01:06.556Z,4.00
2018-05-17T06:05:00.303Z,3.90
2018-05-17T06:08:53.502Z,3.87
2018-05-17T06:12:46.699Z,3.60
2018-05-17T06:16:39.946Z,3.87
2018-05-17T06:20:33.117Z,3.80
2018-05-17T06:24:27.567Z,4.40
2018-05-17T06:28:20.845Z,4.50
2018-05-17T06:32:14.415Z,4.03
2018-05-17T06:36:08.811Z,3.72
2018-05-17T06:40:02.375Z,3.90
2018-05-17T06:47:56.795Z,3.60
2018-05-17T06:51:50.552Z,4.00
2018-05-17T06:55:44.721Z,3.63
2018-05-17T06:59:38.011Z,3.83
2018-05-17T07:03:31.538Z,4.83
2018-05-17T07:07:25.116Z,4.60
2018-05-17T07:11:23.886Z,4.00
2018-05-17T07:15:17.100Z,4.47
2018-05-17T07:19:10.375Z,3.92
2018-05-17T07:23:04.535Z,4.07
2018-05-17T07:26:57.783Z,3.77
2018-05-17T07:30:51.121Z,4.20
2018-05-17T07:34:45.139Z,3.50
2018-05-17T07:38:38.379Z,3.93
2018-05-17T07:42:31.621Z,4.05
2018-05-17T07:46:25.600Z,4.43
2018-05-17T07:50:19.616Z,3.90
2018-05-17T07:54:13.739Z,3.97
2018-05-17T07:58:07.726Z,3.90
2018-05-17T08:02:01.038Z,4.07
2018-05-17T08:05:54.196Z,3.30
2018-05-17T08:09:47.396Z,4.70
2018-05-17T08:13:41.431Z,3.27
2018-05-17T08:17:34.700Z,4.97
2018-05-17T08:21:28.590Z,3.97
2018-05-17T08:25:22.252Z,3.57
2018-05-17T08:29:15.887Z,4.13
2018-05-17T08:33:09.084Z,4.20
2018-05-17T08:37:02.370Z,3.63
2018-05-17T08:40:58.229Z,4.77
2018-05-17T08:44:53.240Z,4.73
2018-05-17T08:48:46.363Z,4.27
2018-05-17T08:52:39.528Z,4.33
2018-05-17T08:56:34.077Z,4.70
2018-05-17T09:00:32.256Z,3.53
2018-05-17T09:04:25.781Z,4.10
2018-05-17T09:08:20.365Z,3.90
2018-05-17T09:12:15.290Z,4.20
2018-05-17T09:16:09.458Z,4.40
2018-05-17T09:20:03.073Z,4.10
2018-05-17T09:23:57.197Z,4.33
2018-05-17T09:27:50.670Z,3.77
2018-05-17T09:31:44.668Z,4.37
2018-05-17T09:35:37.972Z,4.07
2018-05-17T09:39:32.308Z,4.33
2018-05-17T09:43:25.506Z,4.60
2018-05-17T09:47:18.633Z,3.60
2018-05-17T09:51:11.859Z,3.90
2018-05-17T09:55:05.829Z,4.27
2018-05-17T09:58:59.854Z,3.83
2018-05-17T10:02:52.993Z,4.60
2018-05-17T10:06:47.012Z,4.10
2018-05-17T10:10:40.406Z,3.73
2018-05-17T10:14:36.568Z,4.33
2018-05-17T10:18:30.839Z,4.60
2018-05-17T10:22:25.200Z,3.70
2018-05-17T10:26:20.673Z,4.25
2018-05-17T10:30:19.585Z,3.80
2018-05-17T10:34:14.585Z,4.55
2018-05-17T10:38:07.860Z,4.07
2018-05-17T10:42:01.784Z,4.10
2018-05-17T10:45:56.729Z,4.47
2018-05-17T10:49:50.508Z,3.70
2018-05-17T10:53:44.170Z,4.73
2018-05-17T10:57:37.491Z,3.97
2018-05-17T11:01:30.654Z,4.73
2018-05-17T11:05:24.263Z,4.83
2018-05-17T11:09:17.528Z,5.30
2018-05-17T11:13:10.748Z,4.87
2018-05-17T11:17:05.348Z,5.03
2018-05-17T11:20:59.671Z,5.12
2018-05-17T11:24:52.872Z,4.87
2018-05-17T11:28:46.021Z,5.00
2018-05-17T11:32:39.188Z,5.30
2018-05-17T11:36:32.451Z,5.20
2018-05-17T11:40:25.629Z,5.20
2018-05-17T11:44:18.915Z,5.43
2018-05-17T11:48:12.153Z,4.60
2018-05-17T11:52:06.283Z,5.17
2018-05-17T11:55:59.656Z,5.13
2018-05-17T11:59:52.882Z,4.90
2018-05-17T12:03:47.675Z,4.90
2018-05-17T12:07:42.078Z,5.70
2018-05-17T12:11:36.210Z,4.65
2018-05-17T12:15:30.323Z,5.00
2018-05-17T12:19:23.867Z,4.70
2018-05-17T12:23:17.918Z,5.07
2018-05-17T12:27:11.127Z,5.30
2018-05-17T12:31:05.267Z,5.80
2018-05-17T12:34:58.568Z,5.00
2018-05-17T12:38:52.235Z,4.85
2018-05-17T12:42:47.683Z,5.00
2018-05-17T12:46:42.006Z,4.75
2018-05-17T12:50:35.694Z,4.80
2018-05-17T12:54:29.205Z,5.20
2018-05-17T12:58:23.751Z,4.80
2018-05-17T13:02:18.041Z,5.33
2018-05-17T13:06:11.327Z,5.37
2018-05-17T13:10:04.656Z,5.40
2018-05-17T13:13:58.133Z,5.10
2018-05-17T13:17:51.859Z,4.60
2018-05-17T13:21:45.426Z,4.60
2018-05-17T13:25:39.932Z,5.53
2018-05-17T13:29:34.582Z,5.00
2018-05-17T13:33:27.793Z,4.90
2018-05-17T13:37:22.444Z,5.10
2018-05-17T13:41:15.621Z,4.80
2018-05-17T13:45:08.887Z,4.20
2018-05-17T13:49:02.117Z,5.03
2018-05-17T13:52:56.844Z,5.07
2018-05-17T13:56:50.809Z,5.00
2018-05-17T14:00:45.659Z,4.37
2018-05-17T14:04:38.812Z,4.67
2018-05-17T14:08:32.377Z,5.00
2018-05-17T14:12:26.858Z,4.50
2018-05-17T14:16:20.552Z,4.57
2018-05-17T14:20:14.670Z,4.77
2018-05-17T14:24:08.654Z,4.27
2018-05-17T14:28:01.837Z,4.47
2018-05-17T14:31:55.336Z,4.80
2018-05-17T14:35:48.829Z,4.68
2018-05-17T14:39:42.511Z,4.80
2018-05-17T14:43:38.273Z,4.80
2018-05-17T14:47:31.772Z,4.87
2018-05-17T14:55:50.664Z,6.20
2018-05-17T14:59:45.443Z,4.63
2018-05-17T15:03:40.625Z,4.67
2018-05-17T15:07:35.601Z,4.80
2018-05-17T15:11:30.329Z,4.37
2018-05-17T15:15:24.260Z,4.80
2018-05-17T15:19:22.473Z,4.90
2018-05-17T15:23:17.369Z,4.60
2018-05-17T15:27:15.647Z,5.00
2018-05-17T15:31:11.395Z,4.60
2018-05-17T15:43:33.052Z,4.95
2018-05-17T15:47:26.340Z,5.00
2018-05-17T15:51:20.445Z,4.67
2018-05-17T15:55:15.133Z,4.78
2018-05-17T15:59:08.655Z,4.62
2018-05-17T16:03:01.997Z,5.07
2018-05-17T16:06:56.570Z,5.17
2018-05-17T16:10:53.437Z,5.20
2018-05-17T16:14:47.056Z,4.97
2018-05-17T16:18:42.242Z,5.13
2018-05-17T16:22:36.189Z,5.23
2018-05-17T16:30:31.082Z,4.73
2018-05-17T16:38:42.101Z,4.82
2018-05-17T17:12:49.021Z,5.18
2018-05-17T17:16:44.203Z,5.30
2018-05-17T17:20:38.311Z,4.73
2018-05-17T17:24:33.892Z,5.10
2018-05-17T17:28:27.536Z,5.17
2018-05-17T17:32:23.776Z,4.75
2018-05-17T17:36:17.133Z,4.10
2018-05-17T17:40:10.581Z,4.70
2018-05-17T17:44:10.336Z,4.76
2018-05-17T17:48:06.497Z,4.87
2018-05-17T17:52:04.007Z,5.25
2018-05-17T17:55:58.156Z,4.82
2018-05-17T17:59:52.911Z,5.53
2018-05-17T18:03:46.331Z,4.82
2018-05-17T18:07:39.621Z,5.00
2018-05-17T18:11:33.056Z,4.87
2018-05-17T18:15:26.336Z,4.57
2018-05-17T18:19:20.318Z,4.97
2018-05-17T18:23:13.655Z,5.25
2018-05-17T18:27:10.465Z,5.22
2018-05-17T18:31:15.290Z,5.53
2018-05-17T18:35:25.925Z,4.50
2018-05-17T18:56:16.694Z,4.78
2018-05-17T19:00:10.398Z,4.63
2018-05-17T19:04:03.998Z,4.67
2018-05-17T19:08:00.502Z,4.70
2018-05-17T19:11:54.189Z,5.40
2018-05-17T19:15:48.673Z,4.80
2018-05-17T19:19:42.616Z,4.60
2018-05-17T19:23:35.734Z,4.83
2018-05-17T19:27:29.053Z,4.85
2018-05-17T19:31:25.024Z,5.37
2018-05-17T19:35:18.796Z,4.80
2018-05-17T19:39:12.787Z,5.37
2018-05-17T19:43:07.235Z,5.20
2018-05-17T19:47:00.423Z,5.18
2018-05-17T19:50:53.822Z,4.72
2018-05-17T19:54:48.647Z,5.30
2018-05-17T19:58:41.911Z,4.82
2018-05-17T20:02:35.203Z,5.25
2018-05-17T20:06:28.499Z,4.73
2018-05-17T20:10:22.480Z,4.90
2018-05-17T20:14:16.519Z,4.95
2018-05-17T20:18:10.807Z,4.90
2018-05-17T20:22:04.284Z,4.90
2018-05-17T20:25:57.700Z,4.73
2018-05-17T20:29:51.728Z,4.72
2018-05-17T20:33:47.813Z,4.93
2018-05-17T20:37:41.104Z,3.83
2018-05-17T20:41:34.627Z,4.80
2018-05-17T20:45:28.568Z,3.73
2018-05-17T20:49:21.836Z,3.83
2018-05-17T20:53:15.867Z,3.60
2018-05-17T20:57:08.987Z,3.93
2018-05-17T21:01:02.441Z,4.03
2018-05-17T21:04:55.689Z,4.60
2018-05-17T21:08:48.848Z,4.63
2018-05-17T21:12:44.154Z,4.23
2018-05-17T21:16:38.314Z,4.17
2018-05-17T21:24:53.960Z,4.70
2018-05-17T21:28:48.191Z,3.40
2018-05-17T21:32:51.165Z,3.63
2018-05-17T21:45:18.426Z,3.77
2018-05-17T21:49:11.687Z,3.83
2018-05-17T21:53:04.816Z,4.23
2018-05-17T21:57:00.378Z,4.47
2018-05-17T22:00:56.094Z,3.63
2018-05-17T22:04:49.244Z,3.97
2018-05-17T22:08:42.434Z,4.30
2018-05-17T22:12:35.688Z,3.57
2018-05-17T22:16:28.981Z,4.60
2018-05-17T22:20:22.172Z,4.32
2018-05-17T22:24:15.307Z,3.93
2018-05-17T22:28:08.517Z,4.70
2018-05-17T22:32:01.676Z,4.20
2018-05-17T22:36:11.268Z,5.03
2018-05-17T22:40:04.619Z,4.00
2018-05-17T22:43:58.194Z,4.43
2018-05-17T22:47:51.498Z,4.10
2018-05-17T22:51:44.678Z,5.87
2018-05-17T22:55:37.827Z,4.70
2018-05-17T22:59:31.028Z,4.03
2018-05-17T23:03:25.414Z,3.83
2018-05-17T23:07:20.450Z,4.53
2018-05-17T23:11:13.703Z,4.30
2018-05-17T23:15:06.889Z,4.80
2018-05-17T23:19:00.926Z,4.33
2018-05-17T23:22:54.039Z,5.00
2018-05-17T23:26:47.272Z,5.60
2018-05-17T23:30:40.622Z,5.60
2018-05-17T23:34:33.756Z,4.53
2018-05-17T23:38:26.914Z,6.07
2018-05-17T23:42:20.944Z,4.80
2018-05-17T23:46:14.089Z,5.10
2018-05-17T23:50:07.219Z,5.73
2018-05-17T23:54:00.374Z,8.10
2018-05-17T23:57:53.515Z,11.10
